Terminal Aerodrome Forecast
Issued by NWS Sterling, VA

Current Version | Previous Version | Graphics & Text | Print | Product List | Glossary On
Versions: 1 2 3 4 5 6 7 8 9 10 11 12 13 14 15 16 17 18 19 20 21 22 23
000
FTUS41 KLWX 301100 AAA
TAFMRB
TAF AMD
KMRB 301151Z 3012/0112 00000KT 1/2SM FG BKN003 OVC025
      TEMPO 3012/3013 1/4SM FG
     FM301300 00000KT 3SM BR BKN025 OVC050
     FM301500 00000KT P6SM FEW050 SCT250
     FM010000 00000KT 5SM BR BKN050
     FM010600 00000KT P6SM BKN250=

USA.gov is the U.S. government's official web portal to all federal, state and local government web resources and services.